Time;durP1;ratioP1;P1;durP2;ratioP2;P2;SDS_P1;SDS_P2;PMS_P1;PMS_P2;Temp;Humidity;BMP_temperature;BMP_pressure;BME280_temperature;BME280_humidity;BME280_pressure;Samples;Min_cycle;Max_cycle;Signal;HPM_P1;HPM_P2
2023/03/25 00:01:00;;;;;;;11.63;2.87;;;9.50;99.90;;;;;;4959451;28;93053;-31
2023/03/25 00:03:28;;;;;;;5.45;3.13;;;9.60;99.90;;;;;;4959217;28;93464;-31
2023/03/25 00:05:54;;;;;;;;;;;9.50;99.90;;;;;;4960329;28;94700;-32
2023/03/25 00:08:21;;;;;;;6.50;2.63;;;9.50;99.90;;;;;;4960459;28;94075;-30
2023/03/25 00:10:52;;;;;;;9.93;3.60;;;9.60;99.90;;;;;;4959576;28;94408;-34
2023/03/25 00:13:18;;;;;;;3.25;2.38;;;9.60;99.90;;;;;;4959155;28;93974;-32
2023/03/25 00:15:44;;;;;;;17.90;2.88;;;9.60;99.90;;;;;;4958775;28;95257;-29
2023/03/25 00:18:10;;;;;;;6.85;2.88;;;9.60;99.90;;;;;;4958754;28;96923;-31
2023/03/25 00:20:39;;;;;;;3.83;2.70;;;9.50;99.90;;;;;;4959260;28;93281;-35
2023/03/25 00:23:06;;;;;;;4.72;2.28;;;9.50;99.90;;;;;;4958681;28;93649;-33
2023/03/25 00:25:32;;;;;;;7.78;3.13;;;9.50;99.90;;;;;;4959361;28;94047;-31
2023/03/25 00:27:58;;;;;;;6.18;2.83;;;9.50;99.90;;;;;;4958816;28;94525;-33
2023/03/25 00:30:24;;;;;;;3.92;3.47;;;9.50;99.90;;;;;;4959866;28;93226;-35
2023/03/25 00:32:51;;;;;;;11.75;3.22;;;9.50;99.90;;;;;;4958907;28;93120;-31
2023/03/25 00:35:21;;;;;;;9.45;2.55;;;9.40;99.90;;;;;;4958434;28;94580;-33
2023/03/25 00:37:56;;;;;;;9.55;3.75;;;9.40;99.90;;;;;;4957942;28;94310;-30
2023/03/25 00:40:22;;;;;;;7.10;3.85;;;9.40;99.90;;;;;;4959285;28;95473;-33
2023/03/25 00:42:49;;;;;;;4.22;2.83;;;9.40;99.90;;;;;;4959046;28;93053;-33
2023/03/25 00:45:15;;;;;;;6.25;4.05;;;9.40;99.90;;;;;;4958466;28;95752;-30
2023/03/25 00:47:42;;;;;;;10.82;2.97;;;9.40;99.90;;;;;;4958241;28;94748;-34
2023/03/25 00:50:08;;;;;;;14.70;5.13;;;9.40;99.90;;;;;;4959609;28;94292;-30
2023/03/25 00:52:34;;;;;;;7.78;3.17;;;9.40;99.90;;;;;;4958163;28;92131;-30
2023/03/25 00:55:00;;;;;;;5.13;3.03;;;9.30;99.90;;;;;;4958356;28;94729;-30
2023/03/25 00:57:26;;;;;;;6.60;3.55;;;9.30;99.90;;;;;;4958581;28;95835;-31
2023/03/25 00:59:52;;;;;;;5.10;3.88;;;9.30;99.90;;;;;;4958833;28;93211;-30
2023/03/25 01:02:20;;;;;;;13.77;4.90;;;9.30;99.90;;;;;;4959626;28;94918;-30
2023/03/25 01:04:48;;;;;;;9.17;4.33;;;9.30;99.90;;;;;;4957391;28;95109;-33
2023/03/25 01:07:14;;;;;;;5.97;4.05;;;9.30;99.90;;;;;;4940614;28;94739;-30
2023/03/25 01:09:40;;;;;;;6.57;4.47;;;9.30;99.90;;;;;;4958749;28;93107;-34
2023/03/25 01:12:06;;;;;;;7.90;4.63;;;9.30;99.90;;;;;;4958207;28;93771;-30
2023/03/25 01:14:32;;;;;;;6.03;3.70;;;9.30;99.90;;;;;;4958335;28;94830;-29
2023/03/25 01:16:59;;;;;;;12.05;5.25;;;9.30;99.90;;;;;;4958514;28;94390;-30
2023/03/25 01:19:25;;;;;;;10.85;4.70;;;9.30;99.90;;;;;;4958176;28;94184;-32
2023/03/25 01:21:50;;;;;;;5.93;3.80;;;9.30;99.90;;;;;;4958144;28;92676;-29
2023/03/25 01:24:16;;;;;;;6.22;3.90;;;9.20;99.90;;;;;;4958720;28;94981;-30
2023/03/25 01:26:44;;;;;;;5.70;4.63;;;9.20;99.90;;;;;;4957608;28;94492;-30
2023/03/25 01:29:11;;;;;;;12.53;4.93;;;9.10;99.90;;;;;;4958378;28;93348;-31
2023/03/25 01:31:37;;;;;;;6.10;4.47;;;9.10;99.90;;;;;;4958113;28;94020;-32
2023/03/25 01:34:03;;;;;;;6.70;4.70;;;9.10;99.90;;;;;;4957948;28;94278;-32
2023/03/25 01:36:28;;;;;;;5.05;3.80;;;9.10;99.90;;;;;;4957804;28;92858;-34
2023/03/25 01:38:57;;;;;;;11.55;5.13;;;9.10;99.90;;;;;;4958024;28;94352;-31
2023/03/25 01:41:22;;;;;;;5.47;4.22;;;9.10;99.90;;;;;;4957765;28;92952;-30
2023/03/25 01:44:28;;;;;;;6.78;4.32;;;9.10;99.90;;;;;;4957271;28;94639;-33
2023/03/25 01:46:57;;;;;;;8.23;4.22;;;9.10;99.90;;;;;;4957266;28;94646;-32
2023/03/25 01:49:32;;;;;;;14.25;4.47;;;9.10;99.90;;;;;;4940958;28;94354;-33
2023/03/25 01:52:04;;;;;;;4.50;3.08;;;9.00;99.90;;;;;;4957008;28;92127;-31
2023/03/25 01:54:30;;;;;;;9.05;3.80;;;9.00;99.90;;;;;;4957392;28;95641;-30
2023/03/25 01:56:56;;;;;;;8.75;4.82;;;9.00;99.90;;;;;;4956474;28;95315;-31
2023/03/25 01:59:26;;;;;;;7.07;4.15;;;8.90;99.90;;;;;;4957642;28;94806;-30
2023/03/25 02:01:52;;;;;;;13.68;5.18;;;8.90;99.90;;;;;;4958043;28;93084;-30
2023/03/25 02:04:33;;;;;;;5.95;3.58;;;8.90;99.90;;;;;;4958007;28;94981;-31
2023/03/25 02:06:59;;;;;;;5.75;3.00;;;8.90;99.90;;;;;;4957733;28;94492;-31
2023/03/25 02:09:25;;;;;;;11.45;4.68;;;8.90;99.90;;;;;;4957134;28;92155;-33
2023/03/25 02:11:54;;;;;;;9.07;3.75;;;8.90;99.90;;;;;;4957794;28;92518;-34
2023/03/25 02:14:23;;;;;;;9.18;4.93;;;8.90;99.90;;;;;;4957626;28;94632;-32
2023/03/25 02:16:52;;;;;;;15.52;3.63;;;8.80;99.90;;;;;;4957049;28;94900;-34
2023/03/25 02:19:31;;;;;;;9.40;3.63;;;8.90;99.90;;;;;;4957434;28;95590;-30
2023/03/25 02:22:40;;;;;;;6.75;3.67;;;8.80;99.90;;;;;;4957148;28;94499;-32
2023/03/25 02:25:22;;;;;;;4.15;3.75;;;8.70;99.90;;;;;;4956034;28;94839;-33
2023/03/25 02:28:24;;;;;;;5.80;3.65;;;8.70;99.90;;;;;;4956729;28;95011;-31
2023/03/25 02:31:31;;;;;;;3.85;3.05;;;8.70;99.90;;;;;;4958038;28;93577;-31
2023/03/25 02:34:17;;;;;;;7.45;4.13;;;8.60;99.90;;;;;;4902502;28;94180;-29
2023/03/25 02:37:21;;;;;;;18.58;3.03;;;8.60;99.90;;;;;;4956803;28;94798;-30
2023/03/25 02:39:59;;;;;;;6.22;3.42;;;8.60;99.90;;;;;;4957075;28;93979;-32
2023/03/25 02:42:50;;;;;;;8.25;4.40;;;8.50;99.90;;;;;;4939158;28;94688;-34
2023/03/25 02:45:22;;;;;;;6.82;4.63;;;8.50;99.90;;;;;;4956911;28;94738;-30
2023/03/25 02:47:58;;;;;;;10.80;4.88;;;8.50;99.90;;;;;;4955976;28;96935;-32
2023/03/25 02:50:37;;;;;;;15.75;3.42;;;8.50;99.90;;;;;;4956871;28;95198;-32
2023/03/25 02:53:07;;;;;;;7.43;2.63;;;8.50;99.90;;;;;;4956737;28;92744;-31
2023/03/25 02:55:34;;;;;;;10.35;2.75;;;8.50;99.90;;;;;;4956716;28;94918;-34
2023/03/25 02:58:05;;;;;;;9.13;3.65;;;8.40;99.90;;;;;;4956006;28;95234;-30
2023/03/25 03:00:33;;;;;;;11.73;3.40;;;8.40;99.90;;;;;;4956358;28;95379;-31
2023/03/25 03:03:04;;;;;;;5.13;2.97;;;8.40;99.90;;;;;;4956846;28;93907;-32
2023/03/25 03:05:42;;;;;;;10.15;3.53;;;8.40;99.90;;;;;;4957309;28;91557;-30
2023/03/25 03:08:29;;;;;;;11.18;4.07;;;8.50;99.90;;;;;;4955988;28;93679;-33
2023/03/25 03:11:27;;;;;;;8.63;2.65;;;8.50;99.90;;;;;;4957567;28;94537;-30
2023/03/25 03:13:59;;;;;;;3.75;3.08;;;8.40;99.90;;;;;;4960158;28;95758;-34
2023/03/25 03:16:48;;;;;;;15.52;3.70;;;8.40;99.90;;;;;;4960152;28;94188;-30
2023/03/25 03:19:36;;;;;;;10.57;2.47;;;8.30;99.90;;;;;;4959694;28;95150;-32
2023/03/25 03:22:34;;;;;;;7.85;3.78;;;8.30;99.90;;;;;;4959044;28;94553;-32
2023/03/25 03:25:19;;;;;;;11.05;3.47;;;8.30;99.90;;;;;;4959588;28;92169;-30
2023/03/25 03:27:48;;;;;;;8.20;3.97;;;8.40;99.90;;;;;;4960355;28;94768;-29
2023/03/25 03:30:26;;;;;;;6.35;3.13;;;8.40;99.90;;;;;;4960140;28;94260;-32
2023/03/25 03:32:53;;;;;;;12.60;4.00;;;8.40;99.90;;;;;;4959719;28;93427;-31
2023/03/25 03:35:48;;;;;;;8.60;4.38;;;8.40;99.90;;;;;;4960042;28;92908;-33
2023/03/25 03:38:17;;;;;;;9.63;3.80;;;8.30;99.90;;;;;;4959033;28;92972;-30
2023/03/25 03:40:48;;;;;;;17.60;3.65;;;8.40;99.90;;;;;;4959411;28;94341;-35
2023/03/25 03:43:24;;;;;;;13.90;3.47;;;8.30;99.90;;;;;;4959324;28;95697;-32
2023/03/25 03:45:56;;;;;;;10.15;3.03;;;8.30;99.90;;;;;;4959996;28;92878;-32
2023/03/25 03:48:39;;;;;;;9.18;2.88;;;8.40;99.90;;;;;;4959211;28;93800;-30
2023/03/25 03:51:11;;;;;;;6.95;3.55;;;8.40;99.90;;;;;;4959902;28;94558;-30
2023/03/25 03:53:45;;;;;;;6.80;3.35;;;8.30;99.90;;;;;;4959844;28;94230;-31
2023/03/25 03:56:18;;;;;;;11.02;3.35;;;8.40;99.90;;;;;;4958964;28;94173;-31
2023/03/25 03:58:45;;;;;;;9.75;3.97;;;8.40;99.90;;;;;;4941972;28;93165;-33
2023/03/25 04:01:26;;;;;;;9.48;3.88;;;8.30;99.90;;;;;;4959411;28;94753;-32
2023/03/25 04:04:09;;;;;;;8.02;4.25;;;8.30;99.90;;;;;;4959706;28;94178;-32
2023/03/25 04:06:42;;;;;;;9.02;3.38;;;8.30;99.90;;;;;;4959234;28;95581;-30
2023/03/25 04:09:17;;;;;;;6.57;2.92;;;8.40;99.90;;;;;;4959070;28;94119;-31
2023/03/25 04:11:49;;;;;;;10.45;3.78;;;8.40;99.90;;;;;;4958708;28;94645;-34
2023/03/25 04:14:15;;;;;;;5.18;3.10;;;8.30;99.90;;;;;;4959050;28;94907;-34
2023/03/25 04:16:44;;;;;;;13.43;3.47;;;8.40;99.90;;;;;;4959561;28;94643;-34
2023/03/25 04:19:12;;;;;;;6.32;3.45;;;8.30;99.90;;;;;;4941728;28;93350;-33
2023/03/25 04:21:38;;;;;;;5.15;3.00;;;8.30;99.90;;;;;;4958624;28;94616;-34
2023/03/25 04:24:07;;;;;;;19.67;3.45;;;8.30;99.90;;;;;;4958397;28;94464;-32
2023/03/25 04:26:36;;;;;;;9.45;3.35;;;8.30;99.90;;;;;;4959277;28;92452;-31
2023/03/25 04:29:05;;;;;;;9.35;4.50;;;8.30;99.90;;;;;;4958766;28;93184;-33
2023/03/25 04:31:30;;;;;;;11.02;3.58;;;8.30;99.90;;;;;;4958304;28;94791;-33
2023/03/25 04:34:01;;;;;;;7.40;3.78;;;8.30;99.90;;;;;;4958294;28;93905;-31
2023/03/25 04:36:36;;;;;;;6.57;4.15;;;8.30;99.90;;;;;;4959158;28;92951;-31
2023/03/25 04:39:02;;;;;;;7.30;3.13;;;8.30;99.90;;;;;;4958455;28;93904;-34
2023/03/25 04:41:28;;;;;;;8.02;3.08;;;8.30;99.90;;;;;;4958958;28;94904;-31
2023/03/25 04:43:54;;;;;;;11.63;4.47;;;8.30;99.90;;;;;;4958339;28;94466;-32
2023/03/25 04:46:19;;;;;;;6.50;2.80;;;8.20;99.90;;;;;;4958751;28;93205;-31
2023/03/25 04:48:46;;;;;;;9.82;4.40;;;8.20;99.90;;;;;;4959176;28;94141;-31
2023/03/25 04:51:13;;;;;;;11.20;4.07;;;8.20;99.90;;;;;;4958632;28;94251;-31
2023/03/25 04:53:40;;;;;;;7.38;3.05;;;8.20;99.90;;;;;;4958520;28;95639;-31
2023/03/25 04:56:11;;;;;;;10.98;3.63;;;8.20;99.90;;;;;;4958077;28;95642;-32
2023/03/25 04:58:38;;;;;;;10.02;3.97;;;8.20;99.90;;;;;;4958290;28;94459;-34
2023/03/25 05:01:10;;;;;;;14.85;4.65;;;8.20;99.90;;;;;;4958789;28;94890;-31
2023/03/25 05:03:38;;;;;;;19.77;3.85;;;8.30;99.90;;;;;;4958667;28;94696;-34
2023/03/25 05:06:06;;;;;;;8.63;4.63;;;8.30;99.90;;;;;;4958673;28;93772;-31
2023/03/25 05:08:32;;;;;;;8.18;4.43;;;8.20;99.90;;;;;;4958391;28;94355;-29
2023/03/25 05:10:58;;;;;;;9.07;4.07;;;8.20;99.90;;;;;;4958288;28;93920;-30
2023/03/25 05:13:23;;;;;;;14.63;5.10;;;8.20;99.90;;;;;;4958943;28;94446;-33
2023/03/25 05:15:49;;;;;;;14.98;4.25;;;8.20;99.90;;;;;;4958169;28;93284;-33
2023/03/25 05:18:15;;;;;;;25.95;5.40;;;8.20;99.90;;;;;;4958073;28;93138;-33
2023/03/25 05:20:45;;;;;;;9.32;4.65;;;8.20;99.90;;;;;;4957473;28;95885;-31
2023/03/25 05:23:16;;;;;;;4.13;3.22;;;8.20;99.90;;;;;;4958494;28;94990;-31
2023/03/25 05:25:46;;;;;;;8.18;4.38;;;8.20;99.90;;;;;;4958375;28;94333;-32
2023/03/25 05:28:13;;;;;;;7.05;3.88;;;8.20;99.90;;;;;;4958616;28;92870;-30
2023/03/25 05:30:47;;;;;;;9.77;4.20;;;8.20;99.90;;;;;;4957928;28;94679;-33
2023/03/25 05:33:14;;;;;;;10.82;3.83;;;8.20;99.90;;;;;;4958165;28;94483;-31
2023/03/25 05:35:41;;;;;;;5.20;3.80;;;8.20;99.90;;;;;;4957059;28;94478;-30
2023/03/25 05:38:08;;;;;;;6.90;4.03;;;8.20;99.90;;;;;;4957979;28;94240;-31
2023/03/25 05:40:35;;;;;;;13.57;5.60;;;8.20;99.90;;;;;;4957856;28;94756;-32
2023/03/25 05:43:02;;;;;;;6.18;4.75;;;8.30;99.90;;;;;;4957341;28;94393;-32
2023/03/25 05:45:28;;;;;;;21.58;4.78;;;8.30;99.90;;;;;;4958234;28;94004;-30
2023/03/25 05:47:53;;;;;;;11.32;5.28;;;8.30;99.90;;;;;;4957489;28;94220;-30
2023/03/25 05:50:20;;;;;;;10.05;4.78;;;8.40;99.90;;;;;;4957849;28;94761;-31
2023/03/25 05:52:48;;;;;;;6.75;4.75;;;8.40;99.90;;;;;;4956445;28;94520;-32
2023/03/25 05:55:18;;;;;;;8.27;4.40;;;8.30;99.90;;;;;;4957019;28;92687;-33
2023/03/25 05:57:46;;;;;;;4.53;3.88;;;8.30;99.90;;;;;;4958405;28;94301;-33
2023/03/25 06:00:14;;;;;;;10.95;4.15;;;8.30;99.90;;;;;;4940011;28;94752;-30
2023/03/25 06:02:41;;;;;;;6.72;4.15;;;8.20;99.90;;;;;;4957650;28;94006;-32
2023/03/25 06:05:15;;;;;;;5.93;3.43;;;8.20;99.90;;;;;;4958083;28;92315;-28
2023/03/25 06:07:46;;;;;;;12.82;4.25;;;8.20;99.90;;;;;;4957083;28;93991;-31
2023/03/25 06:10:16;;;;;;;8.77;3.70;;;8.20;99.90;;;;;;4956318;28;95843;-33
2023/03/25 06:12:44;;;;;;;8.05;2.75;;;8.20;99.90;;;;;;4956824;28;97556;-32
2023/03/25 06:15:12;;;;;;;5.60;3.40;;;8.20;99.90;;;;;;4957923;28;94564;-32
2023/03/25 06:17:39;;;;;;;9.95;4.20;;;8.20;99.90;;;;;;4956585;28;94414;-34
2023/03/25 06:20:11;;;;;;;5.40;2.92;;;8.20;99.90;;;;;;4957625;28;94562;-30
2023/03/25 06:22:44;;;;;;;7.47;2.88;;;8.20;99.90;;;;;;4957676;28;94856;-33
2023/03/25 06:25:18;;;;;;;6.38;2.97;;;8.20;99.90;;;;;;4940169;28;92788;-33
2023/03/25 06:27:45;;;;;;;5.93;3.53;;;8.20;99.90;;;;;;4957621;28;92356;-30
2023/03/25 06:30:17;;;;;;;3.58;2.35;;;8.20;99.90;;;;;;4956933;28;94963;-29
2023/03/25 06:32:43;;;;;;;9.07;3.25;;;8.20;99.90;;;;;;4956628;28;94819;-30
2023/03/25 06:35:10;;;;;;;7.80;3.35;;;8.20;99.90;;;;;;4956651;28;94608;-29
2023/03/25 06:37:37;;;;;;;6.22;3.45;;;8.20;99.90;;;;;;4956749;28;94276;-29
2023/03/25 06:40:04;;;;;;;8.10;3.40;;;8.20;99.90;;;;;;4957081;28;94744;-30
2023/03/25 06:42:31;;;;;;;7.43;3.57;;;8.20;99.90;;;;;;4957060;28;94531;-32
2023/03/25 06:44:56;;;;;;;8.13;3.20;;;8.20;99.90;;;;;;4956854;28;93781;-33
2023/03/25 06:47:22;;;;;;;7.43;3.67;;;8.20;99.90;;;;;;4957125;28;92764;-31
2023/03/25 06:49:48;;;;;;;9.95;3.25;;;8.10;99.90;;;;;;4956883;28;94442;-31
2023/03/25 06:52:14;;;;;;;7.75;3.08;;;8.10;99.90;;;;;;4956853;28;94467;-35
2023/03/25 06:54:40;;;;;;;13.18;3.08;;;8.10;99.90;;;;;;4956736;28;92438;-36
2023/03/25 06:57:05;;;;;;;12.35;3.40;;;8.10;99.90;;;;;;4956608;28;94044;-31
2023/03/25 06:59:31;;;;;;;4.53;3.65;;;8.10;99.90;;;;;;4955958;28;95683;-30
2023/03/25 07:01:58;;;;;;;7.43;3.58;;;8.10;99.90;;;;;;4956271;28;95205;-31
2023/03/25 07:04:24;;;;;;;5.72;2.30;;;8.10;99.90;;;;;;4956720;28;94367;-31
2023/03/25 07:06:49;;;;;;;4.03;2.80;;;8.20;99.90;;;;;;4956781;28;93213;-34
2023/03/25 07:09:15;;;;;;;8.52;3.13;;;8.40;99.90;;;;;;4955950;28;94553;-34
2023/03/25 07:11:42;;;;;;;5.93;3.80;;;8.40;99.90;;;;;;4956424;28;94464;-30
2023/03/25 07:14:07;;;;;;;4.93;3.08;;;8.40;99.90;;;;;;4956833;28;94013;-30
2023/03/25 07:16:33;;;;;;;10.82;3.08;;;8.50;99.90;;;;;;4956703;28;91689;-31
2023/03/25 07:18:59;;;;;;;7.10;2.88;;;8.70;99.90;;;;;;4955825;28;95296;-34
2023/03/25 07:21:25;;;;;;;8.25;3.70;;;8.80;99.90;;;;;;4956020;28;94914;-33
2023/03/25 07:23:51;;;;;;;6.97;3.28;;;8.90;99.90;;;;;;4956172;28;95506;-34
2023/03/25 07:26:17;;;;;;;9.45;3.75;;;8.90;99.90;;;;;;4957016;28;92127;-31
2023/03/25 07:28:43;;;;;;;6.25;3.72;;;9.10;99.90;;;;;;4956040;28;94242;-33
2023/03/25 07:31:11;;;;;;;10.98;4.22;;;9.40;99.90;;;;;;4956421;28;94362;-32
2023/03/25 07:33:37;;;;;;;9.60;4.05;;;9.60;99.90;;;;;;4956847;28;93497;-32
2023/03/25 07:36:05;;;;;;;4.30;3.33;;;9.70;99.90;;;;;;4955995;28;94025;-31
2023/03/25 07:38:31;;;;;;;8.73;4.47;;;9.80;99.90;;;;;;4956824;28;94456;-34
2023/03/25 07:40:57;;;;;;;11.88;4.75;;;9.90;99.90;;;;;;4956774;28;94840;-34
2023/03/25 07:43:23;;;;;;;8.23;4.03;;;10.20;99.90;;;;;;4956086;28;93406;-33
2023/03/25 07:45:48;;;;;;;13.45;4.45;;;10.20;99.90;;;;;;4956174;28;92838;-32
2023/03/25 07:48:15;;;;;;;9.52;4.47;;;10.00;99.90;;;;;;4955440;28;95774;-30
2023/03/25 07:50:42;;;;;;;14.05;3.78;;;9.70;99.90;;;;;;4955541;28;94693;-29
2023/03/25 07:53:09;;;;;;;13.43;4.05;;;9.50;99.90;;;;;;4956494;28;93119;-31
2023/03/25 07:55:35;;;;;;;8.23;4.68;;;9.50;99.90;;;;;;4955643;28;92543;-31
2023/03/25 07:58:01;;;;;;;11.30;4.60;;;9.20;99.90;;;;;;4957051;28;95011;-31
2023/03/25 08:00:28;;;;;;;16.73;4.13;;;9.10;99.90;;;;;;4959374;28;94935;-33
2023/03/25 08:02:55;;;;;;;13.32;4.97;;;9.00;99.90;;;;;;4959619;28;93315;-32
2023/03/25 08:05:21;;;;;;;10.82;4.82;;;8.80;99.90;;;;;;4959378;28;93860;-30
2023/03/25 08:07:51;;;;;;;10.57;4.53;;;8.80;99.90;;;;;;4959534;28;94378;-30
2023/03/25 08:10:17;;;;;;;12.25;4.78;;;8.80;99.90;;;;;;4959929;28;94347;-34
2023/03/25 08:12:44;;;;;;;12.10;4.25;;;8.80;99.90;;;;;;4958881;28;94423;-30
2023/03/25 08:15:11;;;;;;;8.35;3.95;;;8.80;99.90;;;;;;4958973;28;93904;-30
2023/03/25 08:17:38;;;;;;;21.23;5.03;;;8.80;99.90;;;;;;4958803;28;94646;-34
2023/03/25 08:20:05;;;;;;;4.55;2.75;;;8.80;99.90;;;;;;4959248;28;94774;-32
2023/03/25 08:22:31;;;;;;;8.55;3.80;;;8.90;99.90;;;;;;4959306;28;95063;-33
2023/03/25 08:24:57;;;;;;;15.77;4.68;;;8.90;99.90;;;;;;4958572;28;94540;-30
2023/03/25 08:27:23;;;;;;;10.77;4.28;;;8.90;99.90;;;;;;4958638;28;94741;-30
2023/03/25 08:29:53;;;;;;;17.40;3.80;;;8.80;99.90;;;;;;4940143;28;94660;-31
2023/03/25 08:32:20;;;;;;;24.40;4.40;;;8.80;99.90;;;;;;4959486;28;93779;-33
2023/03/25 08:34:46;;;;;;;9.20;3.85;;;8.80;99.90;;;;;;4958615;28;92110;-34
2023/03/25 08:37:13;;;;;;;5.97;3.28;;;8.80;99.90;;;;;;4958220;28;95378;-31
2023/03/25 08:39:40;;;;;;;10.68;4.15;;;8.80;99.90;;;;;;4958235;28;95900;-33
2023/03/25 08:42:07;;;;;;;8.55;3.50;;;8.70;99.90;;;;;;4958531;28;93591;-34
2023/03/25 08:44:33;;;;;;;11.30;4.70;;;8.70;99.90;;;;;;4959127;28;93354;-33
2023/03/25 08:46:59;;;;;;;12.98;4.65;;;8.80;99.90;;;;;;4958063;28;95090;-33
2023/03/25 08:49:25;;;;;;;12.30;4.05;;;8.90;99.90;;;;;;4957955;28;94506;-32
2023/03/25 08:51:50;;;;;;;15.02;5.80;;;9.00;99.90;;;;;;4958883;28;93277;-32
2023/03/25 08:54:16;;;;;;;17.50;5.25;;;9.00;99.90;;;;;;4958141;28;91482;-31
2023/03/25 08:56:41;;;;;;;8.45;3.33;;;9.00;99.90;;;;;;4958247;28;94550;-30
2023/03/25 08:59:07;;;;;;;7.22;3.58;;;9.10;99.90;;;;;;4957718;28;95266;-31
2023/03/25 09:01:33;;;;;;;13.70;5.22;;;9.10;99.90;;;;;;4958434;28;94113;-31
2023/03/25 09:03:59;;;;;;;17.98;4.80;;;9.20;99.90;;;;;;4958083;28;94407;-30
2023/03/25 09:06:24;;;;;;;21.38;4.93;;;9.30;99.90;;;;;;4958211;28;95110;-34
2023/03/25 09:08:51;;;;;;;9.63;4.78;;;9.50;99.90;;;;;;4958111;28;94457;-33
2023/03/25 09:11:17;;;;;;;10.45;3.88;;;9.70;99.90;;;;;;4958410;28;92150;-32
2023/03/25 09:13:42;;;;;;;10.77;3.80;;;9.70;99.90;;;;;;4957864;28;93384;-31
2023/03/25 09:16:08;;;;;;;9.60;4.20;;;9.70;99.90;;;;;;4958161;28;94915;-29
2023/03/25 09:18:35;;;;;;;7.18;3.95;;;10.00;99.90;;;;;;4958321;28;93973;-32
2023/03/25 09:21:01;;;;;;;15.68;4.50;;;9.90;99.90;;;;;;4958399;28;94931;-34
2023/03/25 09:23:27;;;;;;;11.98;3.20;;;10.10;99.90;;;;;;4957699;28;92944;-32
2023/03/25 09:25:58;;;;;;;7.55;3.60;;;10.30;99.90;;;;;;4956576;28;96086;-30
2023/03/25 09:28:24;;;;;;;14.60;5.07;;;10.30;99.90;;;;;;4956450;28;95427;-32
2023/03/25 09:30:50;;;;;;;12.70;4.85;;;10.00;99.90;;;;;;4958678;28;92181;-29
2023/03/25 09:33:15;;;;;;;11.18;4.28;;;9.90;99.90;;;;;;4956871;28;94261;-29
2023/03/25 09:35:41;;;;;;;6.97;3.58;;;9.80;99.90;;;;;;4951204;28;94570;-34
2023/03/25 09:38:07;;;;;;;10.82;4.03;;;9.70;99.90;;;;;;4934903;28;95038;-32
2023/03/25 09:40:33;;;;;;;8.60;3.53;;;9.60;99.90;;;;;;4940349;28;93503;-33
2023/03/25 09:43:07;;;;;;;14.90;3.75;;;9.50;99.90;;;;;;4950474;28;94399;-31
2023/03/25 09:45:38;;;;;;;7.50;3.25;;;9.50;99.90;;;;;;4935814;28;95661;-31
2023/03/25 09:48:20;;;;;;;13.90;5.15;;;9.90;99.90;;;;;;4942974;28;94720;-32
2023/03/25 09:50:46;;;;;;;9.02;4.25;;;10.50;99.90;;;;;;4955016;28;93770;-31
2023/03/25 09:53:50;;;;;;;8.63;3.95;;;10.70;99.90;;;;;;4955298;28;94546;-31
2023/03/25 09:56:23;;;;;;;11.95;4.30;;;10.70;99.90;;;;;;4949582;28;95072;-31
2023/03/25 09:58:52;;;;;;;14.27;4.78;;;10.90;99.90;;;;;;4954486;28;94651;-31
2023/03/25 10:01:33;;;;;;;15.48;4.60;;;10.70;99.90;;;;;;4955296;28;93967;-33
2023/03/25 10:04:16;;;;;;;12.82;4.43;;;10.40;99.90;;;;;;4954970;28;93568;-31
2023/03/25 10:06:56;;;;;;;10.20;4.10;;;10.40;99.90;;;;;;4950336;28;94666;-31
2023/03/25 10:09:46;;;;;;;8.98;3.97;;;10.50;99.90;;;;;;4935235;28;94630;-34
2023/03/25 10:13:01;;;;;;;6.13;3.33;;;10.50;99.90;;;;;;4935505;28;94419;-32
2023/03/25 10:15:59;;;;;;;9.20;4.05;;;10.20;99.90;;;;;;4910624;28;94219;-35
2023/03/25 10:18:35;;;;;;;8.68;4.65;;;9.90;99.90;;;;;;4933698;28;95747;-33
2023/03/25 10:21:24;;;;;;;8.63;2.55;;;10.00;99.90;;;;;;4934433;28;95521;-34
2023/03/25 10:23:57;;;;;;;8.88;3.67;;;9.90;99.90;;;;;;4935528;28;92976;-33
2023/03/25 10:26:48;;;;;;;12.00;3.20;;;10.10;99.90;;;;;;4916603;28;93342;-31
2023/03/25 10:29:20;;;;;;;8.18;4.00;;;10.20;99.90;;;;;;4934768;28;94402;-34
2023/03/25 10:31:52;;;;;;;8.18;3.58;;;10.20;99.90;;;;;;4935404;28;96000;-32
2023/03/25 10:34:24;;;;;;;18.80;4.93;;;10.00;99.90;;;;;;4935035;28;93969;-35
2023/03/25 10:36:56;;;;;;;13.98;3.97;;;10.00;99.90;;;;;;4934341;28;93971;-33
2023/03/25 10:39:24;;;;;;;6.25;3.63;;;9.90;99.90;;;;;;4934815;28;94773;-32
2023/03/25 10:42:02;;;;;;;11.45;4.05;;;9.80;99.90;;;;;;4934652;28;94672;-30
2023/03/25 10:44:29;;;;;;;8.57;3.95;;;9.80;99.90;;;;;;4934742;28;95386;-31
2023/03/25 10:47:03;;;;;;;12.23;3.40;;;9.90;99.90;;;;;;4916749;28;93311;-32
2023/03/25 10:49:31;;;;;;;20.17;4.10;;;10.00;99.90;;;;;;4934810;28;94549;-31
2023/03/25 10:51:58;;;;;;;15.00;3.50;;;10.00;99.90;;;;;;4934680;28;94289;-31
2023/03/25 10:54:38;;;;;;;11.30;3.28;;;10.00;99.90;;;;;;4935473;28;93723;-33
2023/03/25 10:57:09;;;;;;;14.18;3.65;;;9.90;99.90;;;;;;4934428;28;93361;-30
2023/03/25 10:59:56;;;;;;;12.70;4.97;;;9.90;99.90;;;;;;4933981;28;95510;-33
2023/03/25 11:02:25;;;;;;;12.48;3.83;;;10.10;99.90;;;;;;4934440;28;93046;-31
2023/03/25 11:05:03;;;;;;;13.93;4.00;;;10.40;99.90;;;;;;4934494;28;95007;-32
2023/03/25 11:07:39;;;;;;;11.82;4.70;;;10.50;99.90;;;;;;4935311;28;93265;-33
2023/03/25 11:10:33;;;;;;;6.75;3.28;;;10.70;99.90;;;;;;4934358;28;95868;-30
2023/03/25 11:13:02;;;;;;;15.02;4.65;;;10.80;99.90;;;;;;4932305;28;95694;-30
2023/03/25 11:15:32;;;;;;;9.52;3.30;;;10.80;99.90;;;;;;4947544;28;93114;-32
2023/03/25 11:18:37;;;;;;;6.63;2.33;;;11.00;99.90;;;;;;4953697;28;94068;-31
2023/03/25 11:21:11;;;;;;;7.65;3.40;;;11.10;99.90;;;;;;4950011;28;95211;-29
2023/03/25 11:23:46;;;;;;;11.43;3.83;;;11.40;99.90;;;;;;4954005;28;94808;-31
2023/03/25 11:26:29;;;;;;;5.18;2.60;;;11.60;99.90;;;;;;4953905;28;93083;-33
2023/03/25 11:29:01;;;;;;;7.70;2.55;;;11.60;99.90;;;;;;4954719;28;91727;-33
2023/03/25 11:31:32;;;;;;;13.25;3.65;;;11.70;99.90;;;;;;4954942;28;94662;-31
2023/03/25 11:34:10;;;;;;;9.02;3.63;;;11.90;99.90;;;;;;4957302;28;94704;-33
2023/03/25 11:36:39;;;;;;;14.25;4.13;;;11.90;99.90;;;;;;4957303;28;93855;-32
2023/03/25 11:39:28;;;;;;;18.75;4.07;;;11.70;99.90;;;;;;4957562;28;93392;-34
2023/03/25 11:41:54;;;;;;;12.82;4.32;;;11.50;99.90;;;;;;4957575;28;96201;-34
2023/03/25 11:44:28;;;;;;;14.90;4.03;;;11.50;99.90;;;;;;4955777;28;94772;-33
2023/03/25 11:47:03;;;;;;;9.30;3.92;;;11.50;99.90;;;;;;4956261;28;92328;-33
2023/03/25 11:49:34;;;;;;;10.88;3.20;;;11.40;99.90;;;;;;4954396;28;93090;-31
2023/03/25 11:52:06;;;;;;;7.20;2.97;;;11.30;99.90;;;;;;4957030;28;94735;-32
2023/03/25 11:57:04;;;;;;;8.23;4.13;;;11.30;99.90;;;;;;4955959;28;92846;-32
2023/03/25 11:59:41;;;;;;;13.00;3.10;;;11.30;99.90;;;;;;4957251;28;94540;-33
2023/03/25 12:02:37;;;;;;;9.32;2.63;;;11.40;99.90;;;;;;4956156;28;96401;-33
2023/03/25 12:05:15;;;;;;;15.65;4.43;;;11.40;99.90;;;;;;4943340;28;94987;-34
2023/03/25 12:07:58;;;;;;;10.13;3.37;;;11.30;99.90;;;;;;4957200;28;93485;-30
2023/03/25 12:10:37;;;;;;;8.98;4.05;;;11.30;99.90;;;;;;4957149;28;92265;-33
2023/03/25 12:13:38;;;;;;;8.23;3.65;;;11.30;99.90;;;;;;4956976;28;94787;-34
2023/03/25 12:16:16;;;;;;;8.55;3.40;;;11.20;99.90;;;;;;4935424;28;94586;-34
2023/03/25 12:18:45;;;;;;;;;;;11.20;99.90;;;;;;4957526;28;94294;-32
2023/03/25 12:21:13;;;;;;;9.93;2.42;;;11.10;99.90;;;;;;4958860;28;92626;-34
2023/03/25 12:23:39;;;;;;;;;;;11.20;99.90;;;;;;4957849;28;94888;-32
2023/03/25 12:26:28;;;;;;;7.32;2.28;;;11.20;99.90;;;;;;4957412;28;93883;-32
2023/03/25 12:29:01;;;;;;;8.55;3.47;;;11.30;99.90;;;;;;4956345;28;95398;-32
2023/03/25 12:31:41;;;;;;;11.75;3.78;;;11.20;99.90;;;;;;4956914;28;94477;-31
2023/03/25 12:34:22;;;;;;;5.40;3.03;;;11.20;99.90;;;;;;4956239;28;95003;-33
2023/03/25 12:37:04;;;;;;;7.90;2.78;;;11.20;99.90;;;;;;4955620;28;95040;-33
2023/03/25 12:39:30;;;;;;;8.10;3.47;;;11.20;99.90;;;;;;4956246;28;93047;-32
2023/03/25 12:42:34;;;;;;;9.68;2.65;;;11.20;99.90;;;;;;4956434;28;92668;-33
2023/03/25 12:45:36;;;;;;;8.90;2.40;;;11.40;99.90;;;;;;4931699;28;94595;-34
2023/03/25 12:48:27;;;;;;;7.75;2.50;;;11.70;99.90;;;;;;4956226;28;94107;-34
2023/03/25 12:51:11;;;;;;;9.80;2.72;;;11.80;99.90;;;;;;4956411;28;92749;-31
2023/03/25 12:54:02;;;;;;;3.22;2.80;;;11.90;99.90;;;;;;4955542;28;94509;-30
2023/03/25 12:57:09;;;;;;;9.90;3.65;;;11.70;99.90;;;;;;4954965;28;95506;-33
2023/03/25 13:00:13;;;;;;;9.53;3.77;;;11.80;99.90;;;;;;4934786;28;95442;-31
2023/03/25 13:02:54;;;;;;;9.93;3.38;;;11.90;99.90;;;;;;4956366;28;94482;-32
2023/03/25 13:05:22;;;;;;;11.95;4.30;;;12.00;99.90;;;;;;4955805;28;94315;-31
2023/03/25 13:08:00;;;;;;;11.68;3.63;;;12.00;99.90;;;;;;4955812;28;92961;-33
2023/03/25 13:10:36;;;;;;;9.05;3.13;;;11.80;99.90;;;;;;4955741;28;93953;-32
2023/03/25 13:13:09;;;;;;;8.45;3.03;;;11.70;99.90;;;;;;4955970;28;93503;-33
2023/03/25 13:15:43;;;;;;;9.75;3.42;;;11.80;99.90;;;;;;4954317;28;92682;-30
2023/03/25 13:18:30;;;;;;;16.55;3.33;;;11.80;99.90;;;;;;4954558;28;95973;-32